ΕΜΥ, Εθνική Μετεωρολογική Υπηρεσία - Δελτία Καιρού, Προγνώσεις

ΑΕΡΟΝΑΥΤΙΛΙΑ

GREEK AIRPORTS CODES

TAF LGAV 220500Z 2206/2306 02018KT 9999 FEW025 TEMPO 2206/2212 02018G28KT BECMG 2220/2222 VRB05KT=

EUROPEAN AIRPORTS CODES

LGTT 220700Z 02009KT 300V040 9999 FEW030 19/10 Q1023=